createdAt,value
2018-06-23T00:00:10.841Z,71.49
2018-06-23T00:02:42.290Z,71.94
2018-06-23T00:05:14.872Z,71.57
2018-06-23T00:07:44.526Z,70.40
2018-06-23T00:10:13.279Z,71.52
2018-06-23T00:12:42.018Z,71.12
2018-06-23T00:15:11.341Z,70.23
2018-06-23T00:17:40.008Z,71.50
2018-06-23T00:20:09.928Z,72.10
2018-06-23T00:22:40.887Z,71.89
2018-06-23T00:39:18.836Z,68.41
2018-06-23T00:42:00.665Z,69.15
2018-06-23T00:47:11.940Z,69.24
2018-06-23T00:49:58.941Z,68.76
2018-06-23T00:52:32.859Z,69.88
2018-06-23T00:58:08.036Z,69.68
2018-06-23T01:06:53.918Z,69.05
2018-06-23T01:12:24.430Z,69.01
2018-06-23T01:15:05.230Z,69.57
2018-06-23T01:17:35.908Z,71.27
2018-06-23T01:20:39.309Z,72.01
2018-06-23T01:23:14.239Z,71.53
2018-06-23T01:25:47.764Z,70.89
2018-06-23T01:28:39.529Z,71.82
2018-06-23T01:31:26.273Z,72.76
2018-06-23T01:34:07.825Z,70.79
2018-06-23T01:39:35.972Z,71.19
2018-06-23T01:42:13.945Z,69.32
2018-06-23T01:44:51.465Z,70.13
2018-06-23T01:47:36.114Z,70.43
2018-06-23T01:50:14.863Z,70.14
2018-06-23T01:52:50.192Z,69.67
2018-06-23T01:55:24.621Z,70.94
2018-06-23T01:58:01.489Z,70.17
2018-06-23T02:00:31.974Z,70.74
2018-06-23T02:03:02.026Z,70.70
2018-06-23T02:05:31.713Z,71.22
2018-06-23T02:08:02.728Z,69.54
2018-06-23T02:10:33.853Z,69.94
2018-06-23T02:13:04.026Z,71.06
2018-06-23T02:15:38.845Z,70.71
2018-06-23T02:18:21.537Z,69.60
2018-06-23T02:21:02.936Z,69.57
2018-06-23T02:23:43.762Z,69.59
2018-06-23T02:26:20.242Z,69.58
2018-06-23T02:28:58.793Z,70.47
2018-06-23T02:31:38.140Z,70.84
2018-06-23T02:34:24.327Z,71.19
2018-06-23T02:37:03.981Z,70.29
2018-06-23T02:39:47.068Z,70.75
2018-06-23T02:42:55.280Z,69.99
2018-06-23T02:45:34.609Z,68.78
2018-06-23T02:48:18.103Z,69.38
2018-06-23T02:50:59.897Z,69.53
2018-06-23T02:53:37.943Z,68.59
2018-06-23T02:56:16.417Z,69.82
2018-06-23T02:58:52.925Z,70.03
2018-06-23T03:01:36.881Z,70.50
2018-06-23T03:06:58.486Z,69.23
2018-06-23T03:09:33.504Z,68.52
2018-06-23T03:12:22.175Z,70.85
2018-06-23T03:18:34.484Z,69.43
2018-06-23T03:21:31.177Z,69.72
2018-06-23T03:24:15.880Z,69.32
2018-06-23T03:32:14.305Z,68.69
2018-06-23T03:34:43.505Z,69.42
2018-06-23T03:37:21.792Z,69.91
2018-06-23T03:39:50.949Z,70.68
2018-06-23T03:42:22.533Z,69.71
2018-06-23T03:44:55.441Z,70.71
2018-06-23T03:47:37.540Z,70.67
2018-06-23T03:50:16.448Z,69.25
2018-06-23T03:52:55.549Z,70.07
2018-06-23T03:55:35.052Z,70.44
2018-06-23T04:00:57.756Z,70.33
2018-06-23T04:03:47.179Z,69.35
2018-06-23T04:09:41.302Z,69.28
2018-06-23T04:12:10.343Z,68.95
2018-06-23T04:14:39.361Z,68.85
2018-06-23T04:17:08.847Z,68.48
2018-06-23T04:19:45.771Z,67.77
2018-06-23T04:22:24.616Z,67.97
2018-06-23T04:25:03.579Z,68.45
2018-06-23T04:27:39.241Z,68.24
2018-06-23T04:30:09.070Z,68.28
2018-06-23T04:32:38.470Z,68.25
2018-06-23T04:35:10.316Z,68.59
2018-06-23T04:37:40.228Z,68.32
2018-06-23T04:40:13.889Z,68.68
2018-06-23T04:42:45.181Z,67.55
2018-06-23T04:45:14.872Z,67.19
2018-06-23T04:47:57.889Z,66.76
2018-06-23T04:50:32.132Z,67.74
2018-06-23T04:53:02.820Z,67.50
2018-06-23T04:55:33.100Z,67.15
2018-06-23T04:58:24.456Z,67.25
2018-06-23T05:00:53.913Z,66.25
2018-06-23T05:03:26.879Z,67.00
2018-06-23T05:06:23.680Z,67.18
2018-06-23T05:09:01.160Z,65.91
2018-06-23T05:11:35.710Z,67.62
2018-06-23T05:14:09.988Z,66.41
2018-06-23T05:16:41.865Z,65.66
2018-06-23T05:19:15.104Z,66.39
2018-06-23T05:21:49.611Z,66.24
2018-06-23T05:24:21.850Z,65.04
2018-06-23T05:26:54.906Z,65.24
2018-06-23T05:29:34.772Z,66.01
2018-06-23T05:32:06.400Z,66.39
2018-06-23T05:34:37.276Z,67.10
2018-06-23T05:37:12.378Z,66.17
2018-06-23T05:39:44.765Z,66.59
2018-06-23T05:42:20.489Z,66.75
2018-06-23T05:44:53.137Z,66.91
2018-06-23T05:50:07.692Z,66.54
2018-06-23T05:52:37.513Z,66.34
2018-06-23T05:55:07.083Z,65.97
2018-06-23T05:57:37.698Z,65.76
2018-06-23T06:00:06.397Z,66.37
2018-06-23T06:02:35.448Z,65.76
2018-06-23T06:05:05.281Z,65.05
2018-06-23T06:07:35.077Z,64.77
2018-06-23T06:10:11.121Z,65.08
2018-06-23T06:12:41.230Z,64.10
2018-06-23T06:15:12.785Z,64.29
2018-06-23T06:17:42.244Z,64.27
2018-06-23T06:20:13.797Z,65.00
2018-06-23T06:22:47.134Z,65.06
2018-06-23T06:25:20.041Z,64.36
2018-06-23T06:27:50.869Z,63.39
2018-06-23T06:30:19.913Z,65.14
2018-06-23T06:32:53.385Z,64.27
2018-06-23T06:35:23.390Z,64.62
2018-06-23T06:37:53.356Z,64.96
2018-06-23T06:40:26.151Z,64.67
2018-06-23T06:42:58.326Z,63.49
2018-06-23T06:48:07.891Z,63.84
2018-06-23T06:50:45.403Z,65.21
2018-06-23T06:53:47.404Z,63.11
2018-06-23T06:56:43.089Z,62.65
2018-06-23T06:59:17.794Z,63.69
2018-06-23T07:05:01.575Z,64.78
2018-06-23T07:07:30.377Z,63.47
2018-06-23T07:09:59.259Z,64.73
2018-06-23T07:12:29.380Z,65.06
2018-06-23T07:14:58.423Z,64.66
2018-06-23T07:17:27.606Z,65.55
2018-06-23T07:19:56.599Z,65.66
2018-06-23T07:22:25.809Z,65.13
2018-06-23T07:24:54.569Z,64.50
2018-06-23T07:27:23.798Z,65.56
2018-06-23T07:29:52.832Z,65.43
2018-06-23T07:32:21.825Z,65.96
2018-06-23T07:34:50.735Z,65.23
2018-06-23T07:37:19.737Z,64.96
2018-06-23T07:39:49.106Z,65.25
2018-06-23T07:42:18.077Z,65.48
2018-06-23T07:44:47.049Z,65.09
2018-06-23T07:47:16.863Z,65.77
2018-06-23T07:49:45.653Z,65.31
2018-06-23T07:52:14.475Z,66.08
2018-06-23T07:54:44.188Z,64.88
2018-06-23T07:57:12.919Z,65.58
2018-06-23T07:59:41.652Z,65.63
2018-06-23T08:02:10.423Z,66.27
2018-06-23T08:04:39.283Z,66.01
2018-06-23T08:07:08.683Z,66.42
2018-06-23T08:09:38.093Z,65.98
2018-06-23T08:12:07.197Z,66.44
2018-06-23T08:14:36.394Z,66.29
2018-06-23T08:17:07.612Z,66.30
2018-06-23T08:19:36.272Z,66.20
2018-06-23T08:22:05.725Z,66.16
2018-06-23T08:24:34.533Z,67.55
2018-06-23T08:27:05.661Z,67.06
2018-06-23T08:29:40.022Z,68.25
2018-06-23T08:32:09.292Z,68.35
2018-06-23T08:34:38.245Z,68.32
2018-06-23T08:37:14.748Z,67.67
2018-06-23T08:39:44.057Z,68.39
2018-06-23T08:42:12.789Z,68.76
2018-06-23T08:44:41.518Z,68.91
2018-06-23T08:47:10.327Z,68.48
2018-06-23T08:49:38.974Z,67.46
2018-06-23T08:52:09.083Z,68.20
2018-06-23T08:54:37.833Z,67.21
2018-06-23T08:57:06.687Z,67.40
2018-06-23T08:59:35.544Z,66.76
2018-06-23T09:02:04.177Z,66.04
2018-06-23T09:04:38.044Z,67.05
2018-06-23T09:07:06.772Z,68.41
2018-06-23T09:09:36.124Z,67.91
2018-06-23T09:12:04.762Z,68.73
2018-06-23T09:14:33.908Z,69.17
2018-06-23T09:17:02.759Z,68.50
2018-06-23T09:19:35.213Z,66.87
2018-06-23T09:22:04.490Z,67.83
2018-06-23T09:24:33.871Z,66.61
2018-06-23T09:27:07.055Z,65.88
2018-06-23T09:29:38.470Z,67.35
2018-06-23T09:34:46.326Z,67.71
2018-06-23T09:37:17.171Z,67.37
2018-06-23T09:39:47.268Z,66.84
2018-06-23T09:42:15.985Z,66.96
2018-06-23T09:44:48.485Z,67.28
2018-06-23T09:47:20.318Z,66.89
2018-06-23T09:49:49.113Z,66.98
2018-06-23T09:52:18.181Z,66.58
2018-06-23T09:54:46.916Z,66.85
2018-06-23T09:57:15.804Z,67.74
2018-06-23T09:59:44.620Z,67.20
2018-06-23T10:02:13.640Z,68.48
2018-06-23T10:04:42.224Z,67.75
2018-06-23T10:07:11.450Z,68.10
2018-06-23T10:09:40.795Z,68.62
2018-06-23T10:12:11.129Z,68.21
2018-06-23T10:14:39.810Z,68.86
2018-06-23T10:17:08.449Z,68.46
2018-06-23T10:19:38.475Z,68.64
2018-06-23T10:22:07.340Z,69.56
2018-06-23T10:24:36.450Z,69.60
2018-06-23T10:27:05.485Z,69.94
2018-06-23T10:29:34.422Z,69.83
2018-06-23T10:32:03.313Z,71.28
2018-06-23T10:34:34.247Z,72.06
2018-06-23T10:37:03.710Z,73.39
2018-06-23T10:39:32.912Z,74.49
2018-06-23T10:42:01.537Z,76.32
2018-06-23T10:44:30.178Z,76.54
2018-06-23T10:47:00.838Z,77.89
2018-06-23T10:49:29.460Z,78.17
2018-06-23T10:51:58.083Z,78.04
2018-06-23T10:54:27.102Z,77.22
2018-06-23T10:56:56.303Z,77.10
2018-06-23T10:59:25.049Z,78.46
2018-06-23T11:01:55.090Z,78.59
2018-06-23T11:04:24.089Z,78.61
2018-06-23T11:06:54.042Z,78.86
2018-06-23T11:09:22.610Z,79.56
2018-06-23T11:11:52.034Z,78.67
2018-06-23T11:14:22.951Z,78.18
2018-06-23T11:16:51.420Z,77.98
2018-06-23T11:19:19.917Z,78.67
2018-06-23T11:21:48.507Z,79.80
2018-06-23T11:24:19.534Z,79.70
2018-06-23T11:26:48.593Z,78.20
2018-06-23T11:29:17.154Z,78.51
2018-06-23T11:31:45.826Z,78.80
2018-06-23T11:34:14.902Z,78.16
2018-06-23T11:36:43.591Z,78.10
2018-06-23T11:39:20.409Z,77.65
2018-06-23T11:41:51.369Z,76.21
2018-06-23T11:44:22.199Z,77.34
2018-06-23T11:46:51.389Z,76.85
2018-06-23T11:49:20.591Z,75.96
2018-06-23T11:51:49.418Z,74.93
2018-06-23T11:54:17.932Z,73.64
2018-06-23T11:56:47.120Z,72.56
2018-06-23T11:59:15.796Z,72.41
2018-06-23T12:01:44.776Z,74.28
2018-06-23T12:04:18.693Z,71.18
2018-06-23T12:06:47.766Z,71.65
2018-06-23T12:09:16.620Z,70.45
2018-06-23T12:11:47.956Z,70.70
2018-06-23T12:14:17.935Z,71.42
2018-06-23T12:16:46.817Z,72.25
2018-06-23T12:19:17.491Z,72.36
2018-06-23T12:21:46.044Z,71.07
2018-06-23T12:24:15.421Z,70.94
2018-06-23T12:26:44.417Z,69.33
2018-06-23T12:29:18.005Z,68.47
2018-06-23T12:31:47.535Z,69.09
2018-06-23T12:34:18.579Z,68.90
2018-06-23T12:36:47.361Z,70.25
2018-06-23T12:39:16.065Z,70.67
2018-06-23T12:41:45.389Z,68.95
2018-06-23T12:44:15.360Z,67.41
2018-06-23T12:46:52.274Z,66.91
2018-06-23T12:49:26.991Z,67.14
2018-06-23T12:51:59.909Z,64.74
2018-06-23T12:54:32.484Z,62.47
2018-06-23T12:57:01.284Z,61.50
2018-06-23T12:59:29.969Z,62.66
2018-06-23T13:01:59.657Z,63.29
2018-06-23T13:04:28.846Z,61.85
2018-06-23T13:06:57.485Z,62.40
2018-06-23T13:09:26.278Z,62.96
2018-06-23T13:11:54.898Z,62.71
2018-06-23T13:14:24.256Z,61.41
2018-06-23T13:16:52.794Z,60.80
2018-06-23T13:19:24.747Z,60.10
2018-06-23T13:21:54.024Z,61.45
2018-06-23T13:24:23.302Z,60.65
2018-06-23T13:26:55.304Z,61.07
2018-06-23T13:29:24.129Z,60.46
2018-06-23T13:31:52.774Z,62.42
2018-06-23T13:34:21.436Z,61.72
2018-06-23T13:36:51.371Z,62.27
2018-06-23T13:39:19.978Z,62.88
2018-06-23T13:41:49.222Z,62.48
2018-06-23T13:44:18.006Z,61.79
2018-06-23T13:46:47.013Z,61.55
2018-06-23T13:49:16.229Z,60.55
2018-06-23T13:51:44.788Z,60.04
2018-06-23T13:54:13.395Z,59.48
2018-06-23T13:56:46.141Z,58.72
2018-06-23T13:59:16.211Z,57.80
2018-06-23T14:01:44.872Z,57.18
2018-06-23T14:04:14.037Z,57.77
2018-06-23T14:06:47.577Z,56.13
2018-06-23T14:09:19.915Z,56.36
2018-06-23T14:11:48.931Z,56.19
2018-06-23T14:14:21.009Z,57.56
2018-06-23T14:16:51.338Z,57.03
2018-06-23T14:19:21.621Z,58.01
2018-06-23T14:21:50.768Z,59.40
2018-06-23T14:24:19.641Z,60.66
2018-06-23T14:26:48.285Z,59.57
2018-06-23T14:29:17.012Z,61.42
2018-06-23T14:31:45.757Z,60.03
2018-06-23T14:34:14.781Z,61.99
2018-06-23T14:36:43.384Z,62.78
2018-06-23T14:39:12.580Z,63.47
2018-06-23T14:41:41.292Z,63.13
2018-06-23T14:44:10.062Z,59.97
2018-06-23T14:46:39.481Z,59.92
2018-06-23T14:49:08.268Z,58.37
2018-06-23T14:51:36.940Z,58.81
2018-06-23T14:54:05.670Z,59.68
2018-06-23T14:56:34.281Z,59.63
2018-06-23T14:59:03.049Z,58.14
2018-06-23T15:01:31.753Z,58.79
2018-06-23T15:04:00.605Z,58.40
2018-06-23T15:06:31.454Z,58.68
2018-06-23T15:09:11.466Z,58.02
2018-06-23T15:11:51.258Z,59.23
2018-06-23T15:14:20.172Z,56.26
2018-06-23T15:16:51.657Z,55.93
2018-06-23T15:19:20.248Z,56.83
2018-06-23T15:21:49.657Z,57.18
2018-06-23T15:24:19.697Z,56.83
2018-06-23T15:26:51.234Z,56.18
2018-06-23T15:29:21.427Z,54.53
2018-06-23T15:31:57.273Z,55.10
2018-06-23T15:34:29.272Z,55.65
2018-06-23T15:37:05.027Z,56.33
2018-06-23T15:39:50.726Z,57.08
2018-06-23T15:42:38.784Z,56.63
2018-06-23T15:45:14.009Z,55.55
2018-06-23T15:47:44.177Z,55.14
2018-06-23T15:50:13.552Z,54.64
2018-06-23T15:52:44.939Z,54.46
2018-06-23T15:55:17.113Z,53.46
2018-06-23T15:57:46.607Z,55.66
2018-06-23T16:00:18.337Z,54.22
2018-06-23T16:02:48.717Z,53.52
2018-06-23T16:05:20.673Z,55.08
2018-06-23T16:07:55.088Z,55.06
2018-06-23T16:10:26.732Z,55.72
2018-06-23T16:12:56.502Z,56.48
2018-06-23T16:15:25.738Z,54.04
2018-06-23T16:17:58.378Z,54.35
2018-06-23T16:20:29.960Z,56.01
2018-06-23T16:23:03.745Z,54.20
2018-06-23T16:25:36.604Z,53.51
2018-06-23T16:28:07.968Z,53.37
2018-06-23T16:30:39.650Z,53.98
2018-06-23T16:33:10.299Z,53.72
2018-06-23T16:35:41.430Z,54.93
2018-06-23T16:38:11.692Z,55.08
2018-06-23T16:40:42.186Z,54.80
2018-06-23T16:43:12.599Z,54.68
2018-06-23T16:45:48.024Z,54.50
2018-06-23T16:48:18.120Z,56.02
2018-06-23T16:50:53.128Z,54.36
2018-06-23T16:53:22.007Z,55.49
2018-06-23T16:55:50.920Z,53.31
2018-06-23T16:58:19.912Z,53.10
2018-06-23T17:00:48.622Z,54.09
2018-06-23T17:03:18.376Z,53.25
2018-06-23T17:05:47.350Z,50.43
2018-06-23T17:08:16.082Z,49.37
2018-06-23T17:10:44.872Z,50.96
2018-06-23T17:13:13.724Z,49.60
2018-06-23T17:15:43.705Z,50.20
2018-06-23T17:18:15.983Z,51.13
2018-06-23T17:20:46.988Z,51.38
2018-06-23T17:23:20.235Z,50.85
2018-06-23T17:25:49.080Z,50.80
2018-06-23T17:28:17.933Z,50.73
2018-06-23T17:30:47.006Z,50.50
2018-06-23T17:33:17.753Z,50.64
2018-06-23T17:35:47.719Z,50.53
2018-06-23T17:38:16.652Z,50.46
2018-06-23T17:40:46.682Z,51.33
2018-06-23T17:43:15.332Z,51.55
2018-06-23T17:45:44.814Z,50.01
2018-06-23T17:48:14.019Z,50.50
2018-06-23T17:50:42.650Z,49.16
2018-06-23T17:53:11.421Z,50.50
2018-06-23T17:55:40.117Z,50.93
2018-06-23T17:58:08.773Z,50.69
2018-06-23T18:00:37.820Z,50.41
2018-06-23T18:03:09.258Z,50.38
2018-06-23T18:05:39.276Z,50.27
2018-06-23T18:08:08.959Z,50.66
2018-06-23T18:10:38.036Z,50.71
2018-06-23T18:13:09.590Z,50.39
2018-06-23T18:15:38.721Z,49.18
2018-06-23T18:18:07.341Z,49.69
2018-06-23T18:20:37.162Z,50.21
2018-06-23T18:23:07.670Z,49.39
2018-06-23T18:25:36.438Z,50.20
2018-06-23T18:28:05.056Z,49.79
2018-06-23T18:30:36.198Z,50.11
2018-06-23T18:33:06.014Z,50.72
2018-06-23T18:35:35.545Z,50.36
2018-06-23T18:38:04.802Z,51.08
2018-06-23T18:40:34.480Z,50.72
2018-06-23T18:43:03.575Z,50.80
2018-06-23T18:45:33.001Z,51.15
2018-06-23T18:48:01.685Z,50.48
2018-06-23T18:50:33.325Z,51.13
2018-06-23T18:53:02.661Z,52.09
2018-06-23T18:55:31.702Z,51.28
2018-06-23T18:58:01.298Z,52.03
2018-06-23T19:00:30.159Z,51.47
2018-06-23T19:03:02.414Z,51.25
2018-06-23T19:05:34.843Z,52.09
2018-06-23T19:08:03.852Z,51.67
2018-06-23T19:10:33.027Z,51.54
2018-06-23T19:13:02.724Z,51.58
2018-06-23T19:15:32.360Z,52.62
2018-06-23T19:18:01.673Z,51.76
2018-06-23T19:20:30.527Z,52.45
2018-06-23T19:23:01.619Z,52.04
2018-06-23T19:25:30.456Z,52.88
2018-06-23T19:27:59.273Z,52.87
2018-06-23T19:30:28.949Z,53.10
2018-06-23T19:32:58.110Z,52.33
2018-06-23T19:35:28.133Z,51.67
2018-06-23T19:37:56.704Z,51.96
2018-06-23T19:40:25.603Z,52.38
2018-06-23T19:42:54.447Z,52.55
2018-06-23T19:45:29.169Z,52.52
2018-06-23T19:47:58.539Z,52.20
2018-06-23T19:50:28.036Z,52.35
2018-06-23T19:52:56.553Z,52.85
2018-06-23T19:55:25.786Z,52.63
2018-06-23T19:57:55.051Z,53.80
2018-06-23T20:00:25.144Z,54.30
2018-06-23T20:02:55.069Z,54.58
2018-06-23T20:05:24.250Z,53.41
2018-06-23T20:07:59.546Z,53.55
2018-06-23T20:10:28.715Z,54.00
2018-06-23T20:12:58.696Z,54.29
2018-06-23T20:15:27.671Z,54.65
2018-06-23T20:17:59.186Z,54.68
2018-06-23T20:20:28.377Z,53.74
2018-06-23T20:23:03.889Z,53.34
2018-06-23T20:25:33.645Z,52.79
2018-06-23T20:28:03.991Z,53.33
2018-06-23T20:30:36.962Z,53.71
2018-06-23T20:33:06.409Z,54.00
2018-06-23T20:35:36.769Z,53.88
2018-06-23T20:38:07.597Z,54.34
2018-06-23T20:40:37.294Z,53.75
2018-06-23T20:43:10.822Z,52.99
2018-06-23T20:45:44.349Z,53.99
2018-06-23T20:48:13.029Z,53.99
2018-06-23T20:50:42.618Z,53.05
2018-06-23T20:53:13.782Z,52.90
2018-06-23T20:55:42.693Z,52.77
2018-06-23T20:58:12.173Z,53.52
2018-06-23T21:00:41.229Z,52.84
2018-06-23T21:03:10.262Z,52.89
2018-06-23T21:05:39.707Z,55.03
2018-06-23T21:08:11.027Z,53.96
2018-06-23T21:10:43.323Z,53.08
2018-06-23T21:13:12.809Z,53.23
2018-06-23T21:15:41.801Z,53.47
2018-06-23T21:18:11.812Z,53.10
2018-06-23T21:20:41.394Z,53.58
2018-06-23T21:23:11.729Z,52.75
2018-06-23T21:25:41.303Z,52.89
2018-06-23T21:28:10.359Z,53.41
2018-06-23T21:30:39.021Z,53.36
2018-06-23T21:33:10.140Z,54.92
2018-06-23T21:35:45.359Z,55.66
2018-06-23T21:38:20.018Z,56.19
2018-06-23T21:41:01.001Z,56.63
2018-06-23T21:43:38.519Z,57.08
2018-06-23T21:46:11.602Z,57.04
2018-06-23T21:48:41.559Z,56.89
2018-06-23T21:51:15.165Z,56.45
2018-06-23T21:53:45.161Z,55.38
2018-06-23T21:56:18.486Z,55.95
2018-06-23T21:58:52.790Z,56.17
2018-06-23T22:01:22.263Z,55.14
2018-06-23T22:03:56.135Z,55.00
2018-06-23T22:06:25.442Z,53.86
2018-06-23T22:08:54.790Z,55.14
2018-06-23T22:11:23.837Z,55.58
2018-06-23T22:13:52.704Z,55.82
2018-06-23T22:16:27.592Z,55.72
2018-06-23T22:19:00.266Z,55.48
2018-06-23T22:21:49.027Z,55.54
2018-06-23T22:24:27.792Z,56.03
2018-06-23T22:27:01.476Z,56.42
2018-06-23T22:29:33.845Z,56.62
2018-06-23T22:34:48.289Z,56.17
2018-06-23T22:39:35.108Z,56.37
2018-06-23T22:42:04.270Z,56.58
2018-06-23T22:44:45.304Z,57.03
2018-06-23T22:47:16.243Z,56.38
2018-06-23T22:49:46.298Z,56.80
2018-06-23T22:52:17.642Z,56.88
2018-06-23T22:54:49.190Z,57.39
2018-06-23T22:57:18.099Z,57.27
2018-06-23T22:59:47.336Z,57.62
2018-06-23T23:02:17.316Z,56.62
2018-06-23T23:04:47.835Z,56.79
2018-06-23T23:07:19.692Z,56.50
2018-06-23T23:09:50.102Z,57.78
2018-06-23T23:12:20.373Z,58.38
2018-06-23T23:14:51.657Z,57.32
2018-06-23T23:17:20.644Z,58.45
2018-06-23T23:19:52.120Z,58.60
2018-06-23T23:22:22.140Z,58.45
2018-06-23T23:24:51.473Z,59.05
2018-06-23T23:27:23.042Z,59.49
2018-06-23T23:29:51.826Z,59.41
2018-06-23T23:32:21.288Z,58.94
2018-06-23T23:34:50.572Z,58.93
2018-06-23T23:37:19.321Z,59.72
2018-06-23T23:39:49.646Z,59.43
2018-06-23T23:42:20.109Z,57.93
2018-06-23T23:44:49.937Z,58.64
2018-06-23T23:47:19.017Z,58.46
2018-06-23T23:49:48.012Z,58.71
2018-06-23T23:52:17.035Z,57.80
2018-06-23T23:54:46.744Z,58.08
2018-06-23T23:57:18.570Z,59.24
2018-06-23T23:59:47.406Z,59.75
